Impacts METAR Board
IDs:

KMDW - Chicago/Midway Intl, IL, US

Updated at: 0300 UTC 06 Dec 2019
Potential Impact None Slight Moderate High
Time 05/15Z 05/16Z 05/17Z 05/18Z 05/19Z 05/20Z 05/21Z 05/22Z 05/23Z 06/00Z 06/01Z 06/02Z 06/03Z
Temp33 38 41 43 44 45 45 46 46 45 45 44 45
Dewpt29 30 27 27 28 30 31 32 32 33 34 34 35
Altim30.05 30.06 30.06 30.02 29.99 29.97 29.96 29.96 29.97 29.96 29.96 29.94 29.94
VIS10 10 10 10 10 10 10 10 10 10 10 10 10
CIG-- -- 150 -- 250 180 160 180 150 130 130 130 130
CoverFEWFEWBKNSCTBKNBKNBKNBKNBKNBKNBKNOVCOVC
FltCatVFRVFRVFRVFRVFRVFRVFRVFRVFRVFRVFRVFRVFR
WX--------------------------
WDir210210180180200200190190190180180200190
WSpd4 5 8 9 7 8 10 7 6 5 7 7 7
WGst-- -- -- -- -- -- 17 -- -- -- -- -- --
Raw hourly METARs
KMDW 051453Z 21004KT 10SM FEW150 01/M02 A3005 RMK AO2 SLP187 T00061017 53015 $
KMDW 051553Z 21005KT 10SM FEW150 FEW250 03/M01 A3006 RMK AO2 SLP189 T00331011 $
KMDW 051653Z 18008KT 10SM BKN150 BKN250 05/M03 A3006 RMK AO2 SLP187 T00501028 $
KMDW 051753Z 18009KT 10SM FEW120 FEW150 SCT250 06/M03 A3002 RMK AO2 SLP173 T00611028 10061 21022 58012
KMDW 051853Z 20007KT 10SM FEW120 SCT180 BKN250 07/M02 A2999 RMK AO2 SLP163 T00671022
KMDW 051953Z 20008KT 10SM FEW120 BKN180 BKN250 07/M01 A2997 RMK AO2 SLP158 T00721011
KMDW 052053Z 19010G17KT 10SM FEW120 BKN160 BKN250 07/M01 A2996 RMK AO2 SLP154 T00721006 56019
KMDW 052153Z 19007KT 10SM FEW120 BKN180 BKN250 08/00 A2996 RMK AO2 SLP154 T00780000
KMDW 052253Z 19006KT 10SM BKN150 BKN250 08/00 A2997 RMK AO2 SLP157 T00780000
KMDW 052353Z 18005KT 10SM BKN130 BKN160 07/01 A2996 RMK AO2 SLP154 T00720006 10078 20061 58001
KMDW 060053Z 18007KT 10SM BKN130 BKN160 07/01 A2996 RMK AO2 SLP153 T00720011
KMDW 060153Z 20007KT 10SM BKN130 OVC170 07/01 A2994 RMK AO2 SLP149 T00670011
KMDW 060253Z 19007KT 10SM BKN130 OVC170 07/02 A2994 RMK AO2 SLP146 T00720017 58007



Page loaded:  03:42 UTC  |   07:42 PM Pacific  |   08:42 PM Mountain  |   09:42 PM Central  |   10:42 PM Eastern

 

ADVISORIES

FORECASTS

FORECASTS

OBSERVATIONS

USER TOOLS

ABOUT US